Time;durP1;ratioP1;P1;durP2;ratioP2;P2;SDS_P1;SDS_P2;PMS_P1;PMS_P2;Temp;Humidity;BMP_temperature;BMP_pressure;BME280_temperature;BME280_humidity;BME280_pressure;Samples;Min_cycle;Max_cycle;Signal;HPM_P1;HPM_P2
2022/06/04 05:34:57;;;;;;;;;28.25;25.25;;;;;;;;1322824;24;30218;-84
2022/06/04 05:37:35;;;;;;;;;26.25;25.75;;;;;;;;4773765;29;29336;-84
2022/06/04 05:40:06;;;;;;;;;24.50;23.75;;;;;;;;4772705;29;29442;-84
2022/06/04 05:42:38;;;;;;;;;25.00;23.50;;;;;;;;4770236;29;30408;-83
2022/06/04 05:45:24;;;;;;;;;25.50;23.75;;;;;;;;4756385;29;29795;-84
2022/06/04 05:48:05;;;;;;;;;;;;;;;;;;;;;
2022/06/04 05:50:38;;;;;;;;;26.25;25.25;;;;;;;;4761222;29;54585;-85
2022/06/04 05:53:03;;;;;;;;;25.50;24.50;;;;;;;;4772603;29;29472;-85
2022/06/04 05:55:29;;;;;;;;;26.00;26.00;;;;;;;;4772563;29;29408;-85
2022/06/04 05:57:55;;;;;;;;;31.25;29.00;;;;;;;;4774123;29;29524;-85
2022/06/04 06:00:23;;;;;;;;;27.50;26.50;;;;;;;;4764232;29;29515;-85
2022/06/04 06:02:48;;;;;;;;;30.50;26.00;;;;;;;;4755977;29;31250;-85
2022/06/04 06:05:14;;;;;;;;;22.25;21.25;;;;;;;;4771582;29;29502;-86
2022/06/04 06:07:39;;;;;;;;;20.50;20.50;;;;;;;;4772056;29;29635;-85
2022/06/04 06:10:05;;;;;;;;;26.00;24.75;;;;;;;;4772478;29;29506;-85
2022/06/04 06:12:30;;;;;;;;;27.25;25.00;;;;;;;;4770710;29;31584;-85
2022/06/04 06:14:56;;;;;;;;;28.00;26.25;;;;;;;;4772201;29;29424;-85
2022/06/04 06:17:21;;;;;;;;;24.00;23.00;;;;;;;;4771404;29;31083;-85
2022/06/04 06:19:49;;;;;;;;;20.50;19.50;;;;;;;;4760105;29;29550;-85
2022/06/04 06:22:22;;;;;;;;;22.25;21.25;;;;;;;;4745840;29;32107;-86
2022/06/04 06:25:05;;;;;;;;;25.00;22.00;;;;;;;;4754197;29;30266;-85
2022/06/04 06:27:33;;;;;;;;;21.75;21.00;;;;;;;;4756682;29;29493;-84
2022/06/04 06:29:58;;;;;;;;;23.00;22.00;;;;;;;;4766452;29;29302;-84
2022/06/04 06:32:31;;;;;;;;;22.00;21.00;;;;;;;;3093425;29;46842107;-85
2022/06/04 06:37:42;;;;;;;;;23.00;23.00;;;;;;;;4771878;29;29277;-83
2022/06/04 06:40:10;;;;;;;;;24.00;24.00;;;;;;;;4770240;29;29739;-84
2022/06/04 06:46:03;;;;;;;;;25.25;23.00;;;;;;;;4716025;30;29747;-79
2022/06/04 06:48:29;;;;;;;;;25.00;24.50;;;;;;;;4716226;30;29728;-79
2022/06/04 06:51:03;;;;;;;;;23.25;22.25;;;;;;;;4742841;29;29584;-78
2022/06/04 06:53:29;;;;;;;;;22.00;21.50;;;;;;;;4771140;29;30399;-78
2022/06/04 06:55:54;;;;;;;;;23.25;22.75;;;;;;;;4755344;29;29432;-78
2022/06/04 06:58:19;;;;;;;;;22.75;22.00;;;;;;;;4753609;29;29648;-78
2022/06/04 07:00:45;;;;;;;;;25.75;22.50;;;;;;;;4768091;29;29544;-79
2022/06/04 07:03:11;;;;;;;;;27.25;24.00;;;;;;;;4762871;29;30526;-78
2022/06/04 07:05:37;;;;;;;;;21.75;21.50;;;;;;;;4771242;29;29311;-78
2022/06/04 07:08:03;;;;;;;;;24.75;23.25;;;;;;;;4755236;29;29351;-78
2022/06/04 07:10:28;;;;;;;;;23.25;21.75;;;;;;;;4771164;29;29408;-78
2022/06/04 07:12:53;;;;;;;;;22.25;21.25;;;;;;;;4764392;29;30740;-77
2022/06/04 07:15:19;;;;;;;;;23.50;23.50;;;;;;;;4763277;29;29441;-77
2022/06/04 07:17:44;;;;;;;;;23.50;23.50;;;;;;;;4771511;29;29450;-78
2022/06/04 07:20:10;;;;;;;;;23.00;21.50;;;;;;;;4771277;29;29817;-78
2022/06/04 07:22:35;;;;;;;;;22.75;22.75;;;;;;;;4757167;29;30715;-77
2022/06/04 07:25:00;;;;;;;;;27.75;24.75;;;;;;;;4763686;29;29385;-77
2022/06/04 07:27:26;;;;;;;;;48.50;35.00;;;;;;;;4771453;29;29439;-77
2022/06/04 07:29:51;;;;;;;;;30.25;25.75;;;;;;;;4771731;29;29320;-77
2022/06/04 07:32:16;;;;;;;;;27.75;24.75;;;;;;;;4769415;29;29561;-77
2022/06/04 07:34:41;;;;;;;;;26.00;23.00;;;;;;;;4765157;29;29445;-77
2022/06/04 07:37:09;;;;;;;;;29.50;26.50;;;;;;;;4771041;29;29593;-77
2022/06/04 07:39:34;;;;;;;;;27.50;23.75;;;;;;;;4770228;29;29586;-78
2022/06/04 07:42:00;;;;;;;;;26.00;23.50;;;;;;;;4771294;29;29450;-77
2022/06/04 07:44:25;;;;;;;;;28.25;27.50;;;;;;;;4771383;29;29533;-77
2022/06/04 07:46:52;;;;;;;;;26.00;24.50;;;;;;;;4768688;29;29407;-78
2022/06/04 07:49:18;;;;;;;;;25.75;23.25;;;;;;;;4771673;29;29402;-78
2022/06/04 07:51:45;;;;;;;;;21.00;20.25;;;;;;;;4771413;29;30547;-78
2022/06/04 07:54:11;;;;;;;;;25.75;22.75;;;;;;;;4754081;29;30583;-78
2022/06/04 07:56:39;;;;;;;;;21.00;19.50;;;;;;;;4769689;29;29711;-93
2022/06/04 07:59:06;;;;;;;;;25.00;23.75;;;;;;;;4760145;29;29521;-90
2022/06/04 08:01:31;;;;;;;;;19.25;17.50;;;;;;;;4767329;29;29788;-91
2022/06/04 08:04:00;;;;;;;;;21.50;19.00;;;;;;;;4763426;29;29470;-91
2022/06/04 08:06:25;;;;;;;;;18.25;17.25;;;;;;;;4766692;29;29404;-88
2022/06/04 08:08:54;;;;;;;;;29.00;23.50;;;;;;;;4751222;29;29600;-88
2022/06/04 08:11:32;;;;;;;;;18.00;17.50;;;;;;;;4774960;29;29499;-87
2022/06/04 08:14:03;;;;;;;;;21.50;20.25;;;;;;;;4771944;29;30717;-87
2022/06/04 08:16:29;;;;;;;;;16.75;16.50;;;;;;;;4681389;29;2709053;-87
2022/06/04 08:20:31;;;;;;;;;13.50;13.50;;;;;;;;1937129;29;90475874;-91
2022/06/04 08:23:02;;;;;;;;;4.00;4.00;;;;;;;;703372;29;50398385;-92
2022/06/04 08:27:04;;;;;;;;;;;;;;;;;;1046160;29;115229458;-94
2022/06/04 08:29:40;;;;;;;;;19.00;18.50;;;;;;;;583102;29;121410450;-88
2022/06/04 08:32:06;;;;;;;;;18.50;17.25;;;;;;;;4190690;29;9304671;-88
2022/06/04 08:34:31;;;;;;;;;20.00;20.00;;;;;;;;4769103;29;29798;-88
2022/06/04 08:36:57;;;;;;;;;18.25;17.50;;;;;;;;4769754;29;29379;-91
2022/06/04 08:39:45;;;;;;;;;13.50;13.50;;;;;;;;3204485;29;23423167;-88
2022/06/04 08:42:24;;;;;;;;;;;;;;;;;;1196280;29;48569262;-89
2022/06/04 08:44:51;;;;;;;;;20.75;18.75;;;;;;;;1853442;29;74439386;-88
2022/06/04 08:47:33;;;;;;;;;15.00;14.00;;;;;;;;3248181;29;19354241;-85
2022/06/04 08:50:11;;;;;;;;;13.00;12.25;;;;;;;;4768859;29;36406;-92
2022/06/04 08:52:38;;;;;;;;;16.50;14.50;;;;;;;;4769672;29;29499;-88
2022/06/04 08:58:12;;;;;;;;;18.00;14.00;;;;;;;;4771948;29;28796;-86
2022/06/04 09:01:26;;;;;;;;;;;;;;;;;;2626450;29;63823663;-87
2022/06/04 09:04:21;;;;;;;;;8.00;8.00;;;;;;;;3;76557354;84436417;-86
2022/06/04 09:10:18;;;;;;;;;11.50;11.50;;;;;;;;2;279080251;279080251;-87
2022/06/04 09:12:45;;;;;;;;;18.00;17.25;;;;;;;;3151440;29;17472245;-86
2022/06/04 09:15:32;;;;;;;;;17.00;17.00;;;;;;;;4773336;29;29553;-87
2022/06/04 09:17:59;;;;;;;;;20.00;17.50;;;;;;;;4764030;29;29483;-86
2022/06/04 09:20:39;;;;;;;;;18.67;16.00;;;;;;;;4233014;29;15893117;-87
2022/06/04 09:23:04;;;;;;;;;21.00;18.00;;;;;;;;4751550;29;31281;-87
2022/06/04 09:25:37;;;;;;;;;16.60;16.20;;;;;;;;3807540;29;12870389;-87
2022/06/04 09:28:22;;;;;;;;;14.50;14.25;;;;;;;;4766512;29;90039;-86
2022/06/04 09:30:59;;;;;;;;;17.25;16.50;;;;;;;;4759227;29;205373;-86
2022/06/04 09:33:27;;;;;;;;;16.50;16.00;;;;;;;;3787358;29;16247146;-87
2022/06/04 09:35:54;;;;;;;;;19.75;17.75;;;;;;;;4754803;29;483245;-86
2022/06/04 09:38:21;;;;;;;;;17.00;16.00;;;;;;;;4325076;29;9114643;-86
2022/06/04 09:40:55;;;;;;;;;16.00;16.00;;;;;;;;4717709;29;946660;-86
2022/06/04 09:43:20;;;;;;;;;16.50;16.50;;;;;;;;4768689;29;29388;-87
2022/06/04 09:45:55;;;;;;;;;17.50;16.50;;;;;;;;4557417;29;12074673;-86
2022/06/04 09:48:22;;;;;;;;;16.75;15.50;;;;;;;;4767827;29;29332;-86
2022/06/04 09:50:53;;;;;;;;;22.50;19.00;;;;;;;;4761402;29;29263;-86
2022/06/04 09:53:21;;;;;;;;;20.00;19.50;;;;;;;;4768884;29;29552;-85
2022/06/04 09:55:52;;;;;;;;;18.75;17.25;;;;;;;;4755416;29;29997;-89
2022/06/04 09:58:21;;;;;;;;;18.75;18.25;;;;;;;;4398590;29;3211656;-90
2022/06/04 10:01:03;;;;;;;;;18.00;18.00;;;;;;;;2994873;29;37397893;-91
2022/06/04 10:03:30;;;;;;;;;16.75;16.25;;;;;;;;4652600;29;1674600;-91
2022/06/04 10:06:10;;;;;;;;;17.00;15.00;;;;;;;;4699184;29;1494172;-89
2022/06/04 10:11:23;;;;;;;;;20.75;19.75;;;;;;;;4772392;29;29446;-87
2022/06/04 10:13:50;;;;;;;;;11.75;11.25;;;;;;;;4771314;29;29474;-87
2022/06/04 10:16:17;;;;;;;;;13.25;13.00;;;;;;;;4772515;29;29651;-85
2022/06/04 10:19:05;;;;;;;;;17.25;14.25;;;;;;;;4756218;29;31323;-85
2022/06/04 10:21:32;;;;;;;;;16.75;12.00;;;;;;;;4538959;29;3383791;-84
2022/06/04 10:24:01;;;;;;;;;12.00;12.00;;;;;;;;3776573;29;29677686;-86
2022/06/04 10:26:49;;;;;;;;;;;;;;;;;;3392379;29;61686261;-91
2022/06/04 10:29:24;;;;;;;;;15.25;14.25;;;;;;;;4219722;29;4347038;-88
2022/06/04 10:32:02;;;;;;;;;18.33;17.00;;;;;;;;3706248;29;16868269;-87
2022/06/04 10:34:53;;;;;;;;;15.50;15.50;;;;;;;;4433800;29;3606568;-87
2022/06/04 10:43:59;;;;;;;;;;;;;;;;;;1143991;30;261076448;-86
2022/06/04 10:46:34;;;;;;;;;16.50;15.00;;;;;;;;3269297;29;25763445;-84
2022/06/04 10:49:02;;;;;;;;;13.00;13.00;;;;;;;;4505250;29;5965844;-84
2022/06/04 10:51:43;;;;;;;;;15.50;15.25;;;;;;;;4742743;29;617453;-84
2022/06/04 10:54:24;;;;;;;;;16.75;14.00;;;;;;;;4671175;29;1700154;-84
2022/06/04 10:57:02;;;;;;;;;14.25;12.75;;;;;;;;4741174;30;29429;-85
2022/06/04 10:59:28;;;;;;;;;15.00;14.50;;;;;;;;4770934;29;29487;-84
2022/06/04 11:01:56;;;;;;;;;13.00;12.00;;;;;;;;4759361;29;30933;-85
2022/06/04 11:04:34;;;;;;;;;17.25;11.75;;;;;;;;4771490;29;29572;-85
2022/06/04 11:07:05;;;;;;;;;11.75;11.00;;;;;;;;4754278;29;29587;-85
2022/06/04 11:09:36;;;;;;;;;11.00;10.00;;;;;;;;4637314;29;3535166;-85
2022/06/04 11:15:49;;;;;;;;;;;;;;;;;;2494066;29;235419384;-84
2022/06/04 11:19:51;;;;;;;;;4.00;4.00;;;;;;;;493542;30;213545801;-83
2022/06/04 11:25:42;;;;;;;;;10.25;9.25;;;;;;;;4408880;29;10214498;-83
2022/06/04 11:28:12;;;;;;;;;9.00;9.00;;;;;;;;4754933;29;29350;-83
2022/06/04 11:30:40;;;;;;;;;10.75;8.50;;;;;;;;4755176;29;31051;-82
2022/06/04 11:33:20;;;;;;;;;7.25;6.75;;;;;;;;4771158;29;29494;-80
2022/06/04 11:35:59;;;;;;;;;6.00;6.00;;;;;;;;4771307;29;29373;-81
2022/06/04 11:38:37;;;;;;;;;7.00;6.00;;;;;;;;4771521;29;29518;-82
2022/06/04 11:41:14;;;;;;;;;8.00;6.00;;;;;;;;4770709;29;30188;-82
2022/06/04 11:44:04;;;;;;;;;8.25;8.00;;;;;;;;4771362;29;29421;-82
2022/06/04 11:46:38;;;;;;;;;15.25;11.00;;;;;;;;4771317;29;29436;-82
2022/06/04 11:49:04;;;;;;;;;8.75;7.00;;;;;;;;4770936;29;29432;-82
2022/06/04 11:51:47;;;;;;;;;9.75;8.00;;;;;;;;4771210;29;29526;-82
2022/06/04 11:54:19;;;;;;;;;5.50;4.50;;;;;;;;4753161;29;30093;-82
2022/06/04 11:56:54;;;;;;;;;6.50;6.25;;;;;;;;4771306;29;29540;-82
2022/06/04 11:59:32;;;;;;;;;2.75;2.75;;;;;;;;4770922;29;29509;-82
2022/06/04 12:08:14;;;;;;;;;;;;;;;;;;1810972;29;234068203;-82
2022/06/04 12:10:58;;;;;;;;;5.50;5.50;;;;;;;;4751401;29;29389;-82
2022/06/04 12:13:26;;;;;;;;;11.00;9.00;;;;;;;;4770893;29;29560;-83
2022/06/04 12:16:04;;;;;;;;;10.50;7.25;;;;;;;;4754768;29;29476;-83
2022/06/04 12:18:34;;;;;;;;;6.75;5.50;;;;;;;;4770434;29;29557;-83
2022/06/04 12:30:42;;;;;;;;;;;;;;;;;;2;261075652;261075652;-82
2022/06/04 12:33:28;;;;;;;;;2.50;2.50;;;;;;;;2;159659774;159659774;-82
2022/06/04 12:41:50;;;;;;;;;4.00;4.00;;;;;;;;2;261078268;261078268;-81
2022/06/04 12:51:43;;;;;;;;;4.00;4.00;;;;;;;;655973;29;280314690;-81
2022/06/04 12:56:07;;;;;;;;;4.00;4.00;;;;;;;;2;233845750;233845750;-82
2022/06/04 13:01:47;;;;;;;;;2.50;2.50;;;;;;;;163852;29;261084467;-81
2022/06/04 13:04:13;;;;;;;;;2.50;2.50;;;;;;;;328830;29;136279251;-81
2022/06/04 13:11:39;;;;;;;;;5.50;5.50;;;;;;;;975533;29;261077347;-81
2022/06/04 13:21:11;;;;;;;;;5.00;5.00;;;;;;;;2;288083527;288083527;-81
2022/06/04 13:29:28;;;;;;;;;6.50;3.00;;;;;;;;2;261079442;261079442;-81
2022/06/04 13:32:16;;;;;;;;;27.00;17.50;;;;;;;;2;159014216;159014216;-81
2022/06/04 13:40:31;;;;;;;;;16.50;13.00;;;;;;;;2;261079975;261079975;-81
2022/06/04 13:42:58;;;;;;;;;25.67;12.33;;;;;;;;428005;29;131931712;-82
2022/06/04 13:45:40;;;;;;;;;14.25;10.50;;;;;;;;4756623;29;29599;-82
2022/06/04 13:48:25;;;;;;;;;6.75;6.00;;;;;;;;4772876;29;29491;-82
2022/06/04 13:50:52;;;;;;;;;32.00;15.75;;;;;;;;4772597;29;29593;-82
2022/06/04 13:53:20;;;;;;;;;24.75;16.25;;;;;;;;4765807;29;29927;-82
2022/06/04 13:55:55;;;;;;;;;9.50;7.75;;;;;;;;4767101;29;30647;-81
2022/06/04 13:58:22;;;;;;;;;16.25;12.00;;;;;;;;4772652;29;29557;-82
2022/06/04 14:00:54;;;;;;;;;9.25;6.25;;;;;;;;4756512;29;29473;-81
2022/06/04 14:03:21;;;;;;;;;6.75;6.75;;;;;;;;4772775;29;29500;-81
2022/06/04 14:05:48;;;;;;;;;10.00;5.50;;;;;;;;4772277;29;29683;-81
2022/06/04 14:08:18;;;;;;;;;11.50;6.75;;;;;;;;4756347;29;29621;-82
2022/06/04 14:11:02;;;;;;;;;16.50;5.25;;;;;;;;4770804;29;29608;-82
2022/06/04 14:13:38;;;;;;;;;11.75;7.75;;;;;;;;4772434;29;29374;-82
2022/06/04 14:16:09;;;;;;;;;7.75;5.50;;;;;;;;4772549;29;29487;-82
2022/06/04 14:18:42;;;;;;;;;8.50;6.00;;;;;;;;4756046;29;30170;-82
2022/06/04 14:21:20;;;;;;;;;5.50;5.25;;;;;;;;4771171;29;29403;-82
2022/06/04 14:23:51;;;;;;;;;5.50;5.50;;;;;;;;4755582;29;29599;-82
2022/06/04 14:26:25;;;;;;;;;4.00;3.00;;;;;;;;4770396;29;30240;-82
2022/06/04 14:28:56;;;;;;;;;5.00;5.00;;;;;;;;4756003;29;29367;-82
2022/06/04 14:31:40;;;;;;;;;3.75;3.25;;;;;;;;4772226;29;29459;-82
2022/06/04 14:34:06;;;;;;;;;5.50;5.50;;;;;;;;4756085;29;29621;-82
2022/06/04 14:36:32;;;;;;;;;5.00;5.00;;;;;;;;4771826;29;29535;-82
2022/06/04 14:38:58;;;;;;;;;4.00;4.00;;;;;;;;4755635;29;29949;-82
2022/06/04 14:41:41;;;;;;;;;5.00;4.25;;;;;;;;4772034;29;29397;-82
2022/06/04 14:44:25;;;;;;;;;4.00;4.00;;;;;;;;4772619;29;29607;-82
2022/06/04 14:46:57;;;;;;;;;4.00;4.00;;;;;;;;4772064;29;29403;-82
2022/06/04 14:49:41;;;;;;;;;4.25;4.00;;;;;;;;4772050;29;29533;-82
2022/06/04 14:52:25;;;;;;;;;3.00;3.00;;;;;;;;4769853;29;29431;-83
2022/06/04 14:55:08;;;;;;;;;5.25;4.00;;;;;;;;4744125;29;29434;-83
2022/06/04 14:57:33;;;;;;;;;5.00;4.00;;;;;;;;4770498;29;32288;-83
2022/06/04 15:00:08;;;;;;;;;5.50;5.00;;;;;;;;4771491;29;29297;-82
2022/06/04 15:02:34;;;;;;;;;2.25;2.25;;;;;;;;4755534;29;29435;-83
2022/06/04 15:05:08;;;;;;;;;4.00;4.00;;;;;;;;4770530;29;29484;-83
2022/06/04 15:07:52;;;;;;;;;5.00;5.00;;;;;;;;4755478;29;31029;-82
2022/06/04 15:10:34;;;;;;;;;4.50;4.50;;;;;;;;4755136;29;30989;-82
2022/06/04 15:13:09;;;;;;;;;4.00;4.00;;;;;;;;4771795;29;29543;-82
2022/06/04 15:15:42;;;;;;;;;5.75;4.00;;;;;;;;4755564;29;29628;-83
2022/06/04 15:18:08;;;;;;;;;6.50;5.00;;;;;;;;4771721;29;30440;-83
2022/06/04 15:20:46;;;;;;;;;4.75;4.25;;;;;;;;4772746;29;29736;-83
2022/06/04 15:23:30;;;;;;;;;4.00;4.00;;;;;;;;4752227;29;29715;-83
2022/06/04 15:25:58;;;;;;;;;4.00;4.00;;;;;;;;4769659;29;29416;-83
2022/06/04 15:34:24;;;;;;;;;6.75;5.75;;;;;;;;4771179;29;29443;-83
2022/06/04 15:36:58;;;;;;;;;6.75;6.75;;;;;;;;4755010;29;29406;-84
2022/06/04 15:39:28;;;;;;;;;4.00;4.00;;;;;;;;4765772;29;32233;-84
2022/06/04 15:42:02;;;;;;;;;5.25;4.50;;;;;;;;4770036;29;30817;-84
2022/06/04 15:44:28;;;;;;;;;5.50;4.75;;;;;;;;4764904;29;29543;-84
2022/06/04 15:47:14;;;;;;;;;7.00;6.00;;;;;;;;4755168;29;29539;-84
2022/06/04 15:55:48;;;;;;;;;6.75;6.00;;;;;;;;4763892;29;29502;-84
2022/06/04 15:58:27;;;;;;;;;10.25;7.50;;;;;;;;4759398;29;30770;-85
2022/06/04 16:00:55;;;;;;;;;14.00;9.00;;;;;;;;4762845;29;29680;-87
2022/06/04 16:03:31;;;;;;;;;16.50;12.50;;;;;;;;4779885;29;29392;-92
2022/06/04 16:06:03;;;;;;;;;10.50;9.75;;;;;;;;4790599;29;8942;-90
2022/06/04 16:08:29;;;;;;;;;10.25;10.00;;;;;;;;4789545;29;8830;-92
2022/06/04 16:11:17;;;;;;;;;13.25;8.75;;;;;;;;4778607;29;8784;-91
2022/06/04 16:13:48;;;;;;;;;14.25;8.00;;;;;;;;4774015;29;9793;-86
2022/06/04 16:16:16;;;;;;;;;13.00;11.00;;;;;;;;4774030;29;8855;-85
2022/06/04 16:18:59;;;;;;;;;5.50;5.50;;;;;;;;4790380;29;8820;-83
2022/06/04 16:21:31;;;;;;;;;11.00;7.25;;;;;;;;4770756;29;8972;-82
2022/06/04 16:23:56;;;;;;;;;9.25;8.50;;;;;;;;4762638;29;9186;-84
2022/06/04 16:26:29;;;;;;;;;6.25;6.25;;;;;;;;4774369;29;8862;-86
2022/06/04 16:28:56;;;;;;;;;6.25;6.25;;;;;;;;4774028;29;8823;-84
2022/06/04 16:31:48;;;;;;;;;25.25;14.75;;;;;;;;4789975;29;8908;-81
2022/06/04 16:34:13;;;;;;;;;27.00;18.75;;;;;;;;4788789;29;8854;-77
2022/06/04 16:36:44;;;;;;;;;18.00;16.00;;;;;;;;4789747;29;8847;-78
2022/06/04 16:39:11;;;;;;;;;14.75;11.00;;;;;;;;4773666;29;8930;-79
2022/06/04 16:42:12;;;;;;;;;10.75;10.75;;;;;;;;4790081;29;8820;-80
2022/06/04 16:44:53;;;;;;;;;9.25;8.75;;;;;;;;4788725;29;8858;-80
2022/06/04 16:47:28;;;;;;;;;7.00;7.00;;;;;;;;4773741;29;8912;-81
2022/06/04 16:49:58;;;;;;;;;4.00;4.00;;;;;;;;4773856;29;8839;-78
2022/06/04 16:52:50;;;;;;;;;4.50;4.50;;;;;;;;4789549;29;8856;-78
2022/06/04 16:55:17;;;;;;;;;8.00;8.00;;;;;;;;4771693;29;9208;-80
2022/06/04 16:57:43;;;;;;;;;8.75;8.75;;;;;;;;4789619;29;8804;-79
2022/06/04 17:00:11;;;;;;;;;10.75;8.50;;;;;;;;4789704;29;9059;-81
2022/06/04 17:02:42;;;;;;;;;6.50;6.50;;;;;;;;4788665;29;8928;-81
2022/06/04 17:05:08;;;;;;;;;5.50;4.25;;;;;;;;4772126;29;8839;-80
2022/06/04 17:07:36;;;;;;;;;8.00;7.00;;;;;;;;4791795;29;8827;-80
2022/06/04 17:10:07;;;;;;;;;5.00;5.00;;;;;;;;4792260;29;8823;-81
2022/06/04 17:12:44;;;;;;;;;7.75;7.75;;;;;;;;4789883;29;8840;-80
2022/06/04 17:15:10;;;;;;;;;4.50;4.50;;;;;;;;4772611;29;8834;-78
2022/06/04 17:17:38;;;;;;;;;2.00;2.00;;;;;;;;4773588;29;8830;-79
2022/06/04 17:20:07;;;;;;;;;1.50;1.50;;;;;;;;4776518;29;8816;-80
2022/06/04 17:22:38;;;;;;;;;3.25;3.00;;;;;;;;4782394;29;8874;-79
2022/06/04 17:25:38;;;;;;;;;6.00;5.50;;;;;;;;4785730;29;8825;-79
2022/06/04 17:36:39;;;;;;;;;4.25;4.25;;;;;;;;5484577;24;8794;-83
2022/06/04 17:46:00;;;;;;;;;;;;;;;;;;;;;
2022/06/04 18:04:18;;;;;;;;;2.25;2.25;;;;;;;;4665722;30;8834;-81
2022/06/04 18:06:59;;;;;;;;;;;;;;;;;;;;;
2022/06/04 18:13:07;;;;;;;;;3.75;3.75;;;;;;;;4642518;30;8872;-79
2022/06/04 18:15:52;;;;;;;;;3.00;3.00;;;;;;;;4638263;30;8891;-79
2022/06/04 18:18:51;;;;;;;;;;;;;;;;;;;;;
2022/06/04 18:21:23;;;;;;;;;3.00;3.00;;;;;;;;4714180;30;37986;-80
2022/06/04 18:23:59;;;;;;;;;;;;;;;;;;;;;
2022/06/04 18:26:36;;;;;;;;;3.00;3.00;;;;;;;;4716727;30;35784;-80
2022/06/04 18:29:05;;;;;;;;;5.00;5.00;;;;;;;;4774443;29;8867;-80
2022/06/04 18:34:51;;;;;;;;;4.00;4.00;;;;;;;;4740022;30;9051;-79
2022/06/04 18:37:17;;;;;;;;;5.00;5.00;;;;;;;;4768844;29;8954;-79
2022/06/04 18:39:43;;;;;;;;;6.00;6.00;;;;;;;;4784651;29;8867;-78
